CheckWX is a tool to help pilots better visualize weather data.  It is not intended as a substitute for an official pre-flight weather briefing.

06:49:15 UTC

GOBD TAF
Blaise Diagne International Airport
Dakar, Senegal
TAF GOBD 170530Z 1706/1812 25010KT 9999 STC010

Jun-17@
06:00 UTC

Jun-17 @ 06:00 UTC

Jun-18@
12:00 UTC

Jun-18 @ 12:00 UTC

TAF GOBD 170530Z 1706/1812 25010KT 9999 STC010
Wind
  • 250° at 10 KTS